Time;durP1;ratioP1;P1;durP2;ratioP2;P2;SDS_P1;SDS_P2;PMS_P1;PMS_P2;Temp;Humidity;BMP_temperature;BMP_pressure;BME280_temperature;BME280_humidity;BME280_pressure;Samples;Min_cycle;Max_cycle;Signal;HPM_P1;HPM_P2
2022/06/29 00:00:12;;;;;;;4.87;3.63;;;;;;;17.89;92.86;98554.28;5016669;28;20219;-52
2022/06/29 00:02:39;;;;;;;4.63;4.13;;;;;;;17.85;92.51;98553.91;5019740;28;20606;-52
2022/06/29 00:05:07;;;;;;;4.57;4.10;;;;;;;17.87;93.21;98547.59;5012729;28;20597;-50
2022/06/29 00:07:34;;;;;;;5.50;4.37;;;;;;;17.88;94.49;98549.22;5017780;28;20221;-52
2022/06/29 00:10:01;;;;;;;6.47;4.07;;;;;;;17.85;95.33;98548.63;5007276;28;20237;-50
2022/06/29 00:12:28;;;;;;;8.97;4.40;;;;;;;17.84;95.53;98551.44;5009862;28;20209;-53
2022/06/29 00:14:55;;;;;;;5.50;3.80;;;;;;;17.84;95.12;98551.44;5010916;28;20231;-52
2022/06/29 00:17:24;;;;;;;4.70;4.30;;;;;;;17.84;93.51;98548.78;5014178;28;20667;-53
2022/06/29 00:19:51;;;;;;;4.70;4.30;;;;;;;17.88;94.07;98549.22;5014193;28;20736;-50
2022/06/29 00:22:19;;;;;;;5.37;4.07;;;;;;;17.90;92.78;98542.72;5015030;28;20215;-53
2022/06/29 00:24:46;;;;;;;4.83;4.37;;;;;;;17.94;92.31;98541.31;5018622;28;20259;-53
2022/06/29 00:27:14;;;;;;;5.07;4.47;;;;;;;18.01;94.19;98544.00;5006782;28;20272;-53
2022/06/29 00:29:41;;;;;;;6.50;4.40;;;;;;;17.99;95.17;98538.91;5017507;28;20241;-50
2022/06/29 00:32:09;;;;;;;7.83;4.47;;;;;;;17.94;94.47;98533.38;5017940;28;20215;-50
2022/06/29 00:34:38;;;;;;;5.43;4.50;;;;;;;17.92;94.40;98534.59;5013685;28;20666;-50
2022/06/29 00:37:06;;;;;;;5.57;4.47;;;;;;;17.90;96.26;98534.00;5018289;28;20435;-52
2022/06/29 00:39:34;;;;;;;5.27;3.90;;;;;;;17.84;96.25;98519.75;5014143;28;20255;-53
2022/06/29 00:42:19;;;;;;;8.07;4.20;;;;;;;17.82;96.77;98524.41;5017033;28;20590;-51
2022/06/29 00:44:47;;;;;;;6.60;4.70;;;;;;;17.83;95.13;98529.53;5014082;28;20267;-53
2022/06/29 00:47:14;;;;;;;8.83;4.40;;;;;;;17.81;94.96;98536.00;5019968;28;20219;-54
2022/06/29 00:49:42;;;;;;;5.60;4.50;;;;;;;17.81;94.12;98536.81;5011747;28;20250;-52
2022/06/29 00:52:11;;;;;;;5.50;4.70;;;;;;;17.87;93.11;98531.75;5017758;28;20674;-54
2022/06/29 00:54:41;;;;;;;5.47;4.10;;;;;;;17.90;92.39;98531.34;5019969;28;20322;-53
2022/06/29 00:57:12;;;;;;;4.70;4.30;;;;;;;17.96;91.63;98538.47;5013915;28;20227;-51
2022/06/29 00:59:44;;;;;;;6.83;5.17;;;;;;;17.98;91.63;98531.16;5017027;28;20258;-53
2022/06/29 01:02:13;;;;;;;8.60;4.47;;;;;;;18.02;93.03;98527.13;5011207;28;20344;-52
2022/06/29 01:04:43;;;;;;;6.10;4.27;;;;;;;17.99;93.00;98519.59;5012361;28;20731;-52
2022/06/29 01:07:30;;;;;;;5.13;4.60;;;;;;;17.95;93.55;98518.38;5017899;28;20226;-51
2022/06/29 01:09:57;;;;;;;7.57;4.23;;;;;;;17.96;94.14;98526.06;5012260;28;20217;-51
2022/06/29 01:12:25;;;;;;;6.10;4.50;;;;;;;18.00;91.48;98523.88;5014094;28;20214;-51
2022/06/29 01:14:53;;;;;;;4.57;4.10;;;;;;;18.03;90.96;98522.66;5013723;28;20226;-52
2022/06/29 01:17:21;;;;;;;6.70;4.00;;;;;;;18.03;91.92;98520.81;5014251;28;20203;-52
2022/06/29 01:19:50;;;;;;;5.83;4.57;;;;;;;17.99;93.69;98517.78;5015454;28;20230;-54
2022/06/29 01:22:20;;;;;;;6.70;4.27;;;;;;;17.94;94.14;98522.03;5013003;28;20264;-51
2022/06/29 01:24:47;;;;;;;7.67;4.23;;;;;;;17.89;94.44;98516.53;5013909;28;20793;-52
2022/06/29 01:27:16;;;;;;;5.33;4.73;;;;;;;17.90;96.63;98511.03;5015647;28;20777;-51
2022/06/29 01:30:01;;;;;;;6.40;4.93;;;;;;;17.83;98.09;98502.28;5015260;28;20239;-54
2022/06/29 01:32:28;;;;;;;5.87;4.27;;;;;;;17.76;98.20;98502.28;5010549;28;20622;-54
2022/06/29 01:34:55;;;;;;;5.13;4.63;;;;;;;17.72;98.00;98511.63;5011832;28;20715;-51
2022/06/29 01:37:23;;;;;;;8.30;4.67;;;;;;;17.70;98.26;98500.44;5018478;28;20227;-51
2022/06/29 01:39:50;;;;;;;7.70;4.53;;;;;;;17.73;98.60;98499.22;5012976;28;20705;-53
2022/06/29 01:42:17;;;;;;;4.93;4.43;;;;;;;17.69;99.54;98504.09;5014564;28;20223;-53
2022/06/29 01:44:44;;;;;;;5.60;4.20;;;;;;;17.67;99.19;98504.28;5010375;28;20250;-53
2022/06/29 01:47:12;;;;;;;6.87;5.07;;;;;;;17.66;99.33;98499.22;5007438;28;20209;-53
2022/06/29 01:49:38;;;;;;;13.43;4.53;;;;;;;17.64;99.61;98493.34;5015573;28;20233;-54
2022/06/29 01:52:06;;;;;;;7.87;4.93;;;;;;;17.61;99.94;98497.16;5022493;28;20925;-53
2022/06/29 01:54:35;;;;;;;5.40;4.90;;;;;;;17.59;100.00;98501.03;5011359;28;20215;-53
2022/06/29 01:57:03;;;;;;;6.30;4.67;;;;;;;17.54;99.26;98496.34;5013216;28;20231;-53
2022/06/29 01:59:30;;;;;;;9.33;4.47;;;;;;;17.50;99.19;98495.94;5040836;28;20697;-52
2022/06/29 02:01:57;;;;;;;5.90;4.43;;;;;;;17.47;100.00;98493.69;5010374;28;20215;-55
2022/06/29 02:04:24;;;;;;;6.00;4.67;;;;;;;17.38;100.00;98487.78;5011357;28;20211;-52
2022/06/29 02:06:51;;;;;;;6.37;4.67;;;;;;;17.32;100.00;98493.88;5015486;28;20705;-51
2022/06/29 02:09:18;;;;;;;5.10;4.37;;;;;;;17.25;100.00;98487.75;5018026;28;20713;-51
2022/06/29 02:11:46;;;;;;;6.53;4.40;;;;;;;17.18;99.44;98486.91;5013348;28;20234;-53
2022/06/29 02:14:14;;;;;;;5.47;4.50;;;;;;;17.12;98.65;98483.22;5014578;28;20227;-54
2022/06/29 02:16:41;;;;;;;6.37;4.37;;;;;;;17.07;98.19;98488.25;5011908;28;21647;-51
2022/06/29 02:19:08;;;;;;;6.57;3.80;;;;;;;16.97;98.34;98481.53;5008088;28;20744;-50
2022/06/29 02:21:35;;;;;;;4.80;4.30;;;;;;;16.98;100.00;98479.72;5009394;28;20302;-50
2022/06/29 02:24:02;;;;;;;5.50;5.00;;;;;;;16.95;100.00;98478.28;5015118;28;20234;-53
2022/06/29 02:26:29;;;;;;;5.47;4.53;;;;;;;16.92;100.00;98475.19;5012582;28;20226;-50
2022/06/29 02:28:58;;;;;;;6.10;4.30;;;;;;;16.91;100.00;98477.03;5010540;28;20221;-53
2022/06/29 02:36:53;;;;;;;8.57;4.60;;;;;;;16.99;100.00;98483.97;5012132;28;20226;-51
2022/06/29 02:39:20;;;;;;;5.67;4.73;;;;;;;17.02;100.00;98480.13;5007484;28;20214;-50
2022/06/29 02:41:47;;;;;;;7.97;4.83;;;;;;;17.08;100.00;98489.88;5012820;28;20239;-50
2022/06/29 02:44:15;;;;;;;7.20;5.07;;;;;;;17.12;100.00;98488.50;5012141;28;20230;-51
2022/06/29 02:46:42;;;;;;;6.30;4.27;;;;;;;17.17;100.00;98487.91;5008601;28;20278;-52
2022/06/29 02:49:08;;;;;;;4.90;4.50;;;;;;;17.22;100.00;98481.03;5010588;28;20218;-50
2022/06/29 02:51:36;;;;;;;7.87;5.67;;;;;;;17.26;100.00;98484.09;5010711;28;20229;-50
2022/06/29 02:54:02;;;;;;;6.30;5.10;;;;;;;17.31;100.00;98480.84;5008965;28;20226;-51
2022/06/29 02:56:29;;;;;;;5.77;4.60;;;;;;;17.38;100.00;98481.69;5008811;28;20234;-51
2022/06/29 02:58:56;;;;;;;6.10;4.90;;;;;;;17.41;100.00;98479.47;5009740;28;20217;-53
2022/06/29 03:01:24;;;;;;;4.77;4.33;;;;;;;17.44;100.00;98475.63;5011192;28;20312;-52
2022/06/29 03:03:51;;;;;;;5.40;4.40;;;;;;;17.48;100.00;98478.69;5012779;28;20535;-55
2022/06/29 03:06:18;;;;;;;5.33;4.83;;;;;;;17.52;99.29;98477.25;5012813;28;20275;-54
2022/06/29 03:08:46;;;;;;;5.67;4.40;;;;;;;17.57;98.32;98469.53;5012873;28;20274;-53
2022/06/29 03:11:13;;;;;;;4.97;4.47;;;;;;;17.67;99.11;98467.34;5012783;28;20726;-52
2022/06/29 03:13:39;;;;;;;5.50;4.10;;;;;;;17.69;99.16;98467.16;5012961;28;20599;-51
2022/06/29 03:16:06;;;;;;;4.67;4.20;;;;;;;17.67;98.47;98462.06;5012841;28;20195;-51
2022/06/29 03:18:35;;;;;;;4.50;4.10;;;;;;;17.71;98.47;98465.91;5011594;28;20200;-51
2022/06/29 03:21:02;;;;;;;5.87;4.43;;;;;;;17.74;100.00;98464.72;5011210;28;20209;-53
2022/06/29 03:23:29;;;;;;;6.03;4.53;;;;;;;17.74;100.00;98475.28;5011559;28;20200;-51
2022/06/29 03:25:57;;;;;;;4.73;4.23;;;;;;;17.77;100.00;98477.53;5012755;28;20189;-51
2022/06/29 03:28:24;;;;;;;6.63;4.23;;;;;;;17.75;100.00;98476.91;5012670;28;20205;-54
2022/06/29 03:30:51;;;;;;;6.07;4.43;;;;;;;17.74;100.00;98475.28;5012466;28;20202;-51
2022/06/29 03:33:18;;;;;;;5.20;4.63;;;;;;;17.76;100.00;98478.53;5012952;28;20200;-50
2022/06/29 03:35:47;;;;;;;5.07;4.20;;;;;;;17.75;100.00;98473.44;5012739;28;20276;-53
2022/06/29 03:38:14;;;;;;;5.07;4.67;;;;;;;17.75;100.00;98473.44;5011269;28;20649;-51
2022/06/29 03:40:41;;;;;;;7.50;4.27;;;;;;;17.75;99.57;98474.25;5012614;28;20223;-51
2022/06/29 03:43:08;;;;;;;5.47;4.17;;;;;;;17.76;98.87;98469.78;5011140;28;20206;-51
2022/06/29 03:45:36;;;;;;;6.57;4.20;;;;;;;17.74;98.51;98480.56;5012358;28;20271;-52
2022/06/29 03:48:03;;;;;;;4.60;4.20;;;;;;;17.77;97.87;98482.78;5012726;28;20269;-52
2022/06/29 03:50:30;;;;;;;5.00;4.50;;;;;;;17.78;97.88;98476.50;5012189;28;20218;-54
2022/06/29 03:52:59;;;;;;;6.13;4.67;;;;;;;17.83;96.59;98481.16;5010488;28;20575;-51
2022/06/29 03:55:26;;;;;;;7.00;4.30;;;;;;;17.85;96.70;98474.69;5012282;28;20185;-52
2022/06/29 03:57:53;;;;;;;6.90;4.70;;;;;;;17.88;96.74;98477.94;5012574;28;20192;-51
2022/06/29 04:00:20;;;;;;;5.20;4.30;;;;;;;17.87;95.94;98479.75;5012082;28;20268;-53
2022/06/29 04:02:48;;;;;;;7.23;4.40;;;;;;;17.92;96.79;98479.16;5012435;28;20663;-55
2022/06/29 04:05:15;;;;;;;5.77;4.57;;;;;;;17.91;97.29;98477.53;5012331;28;20199;-53
2022/06/29 04:07:43;;;;;;;4.70;4.30;;;;;;;17.93;97.23;98478.94;5011041;28;20537;-53
2022/06/29 04:10:12;;;;;;;6.67;4.60;;;;;;;17.94;97.42;98485.06;5012078;28;20238;-53
2022/06/29 04:12:39;;;;;;;5.70;4.60;;;;;;;17.97;97.58;98466.16;5012104;28;20691;-53
2022/06/29 04:15:13;;;;;;;7.40;4.47;;;;;;;17.99;97.79;98469.41;5012221;28;20187;-52
2022/06/29 04:17:40;;;;;;;4.87;4.37;;;;;;;17.99;97.65;98475.53;5011186;28;20204;-54
2022/06/29 04:21:05;;;;;;;6.10;4.33;;;;;;;18.01;97.52;98467.41;5012053;28;20466;-54
2022/06/29 04:22:56;;;;;;;5.80;4.20;;;;;;;18.05;97.45;98473.88;5012368;28;20223;-51
2022/06/29 04:25:25;;;;;;;5.00;4.50;;;;;;;18.07;97.40;98473.69;5012336;28;20191;-51
2022/06/29 04:27:52;;;;;;;4.70;4.30;;;;;;;18.10;97.09;98481.22;5012065;28;20207;-52
2022/06/29 04:30:19;;;;;;;7.63;4.13;;;;;;;18.06;96.78;98475.50;5012106;28;20211;-53
2022/06/29 04:32:47;;;;;;;7.90;4.23;;;;;;;18.07;97.31;98478.97;5012342;28;20734;-53
2022/06/29 04:35:14;;;;;;;4.67;4.27;;;;;;;18.04;97.75;98471.47;5012235;28;20197;-51
2022/06/29 04:37:41;;;;;;;5.03;4.10;;;;;;;18.01;97.94;98488.53;5010711;28;20272;-54
2022/06/29 04:40:10;;;;;;;4.50;4.10;;;;;;;18.01;98.47;98488.53;5012146;28;20289;-52
2022/06/29 04:42:39;;;;;;;4.97;4.30;;;;;;;17.98;97.69;98487.06;5010762;28;20196;-53
2022/06/29 04:46:19;;;;;;;4.60;4.20;;;;;;;18.00;97.17;98493.00;5012181;28;20190;-54
2022/06/29 04:47:54;;;;;;;4.50;4.10;;;;;;;18.03;97.15;98493.59;5012141;28;20193;-52
2022/06/29 04:50:22;;;;;;;7.43;3.90;;;;;;;18.06;96.70;98491.34;5011994;28;20214;-52
2022/06/29 04:52:49;;;;;;;4.00;3.70;;;;;;;18.13;96.17;98488.72;5011991;28;20210;-53
2022/06/29 04:55:17;;;;;;;5.30;4.17;;;;;;;18.12;96.20;98484.47;5012148;28;20528;-52
2022/06/29 04:57:46;;;;;;;5.77;4.40;;;;;;;18.16;95.85;98485.69;5012098;28;20278;-53
2022/06/29 05:00:14;;;;;;;4.80;4.40;;;;;;;18.15;95.67;98490.13;5011884;28;20292;-50
2022/06/29 05:02:41;;;;;;;5.47;3.87;;;;;;;18.19;96.07;98492.38;5012457;28;20184;-51
2022/06/29 05:05:10;;;;;;;4.27;3.97;;;;;;;18.28;95.60;98494.63;5015888;28;20188;-52
2022/06/29 05:07:37;;;;;;;4.73;3.83;;;;;;;18.38;95.37;98506.63;5015559;28;20543;-50
2022/06/29 05:10:04;;;;;;;4.33;4.00;;;;;;;18.50;95.40;98496.22;5015426;28;20204;-52
2022/06/29 05:12:32;;;;;;;6.53;4.13;;;;;;;18.68;94.98;98499.03;5015517;28;20221;-53
2022/06/29 05:15:00;;;;;;;4.20;3.80;;;;;;;18.87;94.33;98486.78;5015466;28;20202;-51
2022/06/29 05:17:35;;;;;;;5.00;3.70;;;;;;;19.09;93.24;98496.28;5015302;28;20186;-52
2022/06/29 05:20:03;;;;;;;5.47;3.80;;;;;;;19.24;90.45;98488.91;5015243;28;20211;-52
2022/06/29 05:22:30;;;;;;;4.10;3.70;;;;;;;19.32;90.48;98491.31;5015350;28;20612;-52
2022/06/29 05:24:57;;;;;;;6.27;4.77;;;;;;;19.49;89.08;98498.75;5015196;28;20191;-52
2022/06/29 05:27:25;;;;;;;4.90;3.93;;;;;;;19.69;88.58;98497.84;5013535;28;20217;-54
2022/06/29 05:29:52;;;;;;;5.90;3.43;;;;;;;19.81;88.03;98495.31;5013691;28;20208;-53
2022/06/29 05:32:21;;;;;;;4.17;3.77;;;;;;;19.88;85.84;98494.25;5013592;28;20593;-51
2022/06/29 05:34:48;;;;;;;4.67;3.50;;;;;;;20.04;86.43;98492.94;5015106;28;20275;-51
2022/06/29 05:37:16;;;;;;;4.00;3.60;;;;;;;20.13;86.08;98504.09;5015040;28;20175;-53
2022/06/29 05:39:44;;;;;;;6.63;3.67;;;;;;;20.16;85.56;98505.47;5014985;28;20792;-51
2022/06/29 05:42:12;;;;;;;4.47;3.50;;;;;;;20.23;85.16;98498.28;5013500;28;20188;-51
2022/06/29 05:44:40;;;;;;;3.83;3.53;;;;;;;20.29;85.66;98501.91;5013945;28;20533;-52
2022/06/29 05:47:08;;;;;;;3.50;3.20;;;;;;;20.34;84.75;98504.72;5014766;28;20192;-52
2022/06/29 05:49:37;;;;;;;5.70;3.50;;;;;;;20.35;85.64;98506.34;5014822;28;20195;-51
2022/06/29 05:52:05;;;;;;;4.23;3.83;;;;;;;20.41;82.50;98504.66;5014510;28;20219;-51
2022/06/29 05:54:33;;;;;;;4.13;3.73;;;;;;;20.45;83.10;98506.66;5014642;28;20597;-51
2022/06/29 05:57:00;;;;;;;4.33;3.33;;;;;;;20.55;82.32;98506.16;5014431;28;20188;-51
2022/06/29 05:59:28;;;;;;;7.13;4.23;;;;;;;20.63;82.71;98505.88;5014408;28;20188;-51
2022/06/29 06:01:55;;;;;;;4.17;3.67;;;;;;;20.71;81.81;98506.59;5014467;28;20204;-51
2022/06/29 06:04:22;;;;;;;3.73;3.43;;;;;;;20.97;80.04;98508.22;5014575;28;20257;-51
2022/06/29 06:06:51;;;;;;;3.73;3.43;;;;;;;21.22;77.16;98509.94;5012943;28;20203;-51
2022/06/29 06:09:22;;;;;;;4.60;3.80;;;;;;;21.53;78.11;98508.94;5014505;28;20186;-51
2022/06/29 06:11:51;;;;;;;6.63;3.70;;;;;;;21.86;74.86;98498.91;5014167;28;20221;-53
2022/06/29 06:14:18;;;;;;;5.43;3.77;;;;;;;22.14;71.68;98502.75;5013444;28;20252;-54
2022/06/29 06:16:45;;;;;;;4.17;3.47;;;;;;;22.41;69.64;98504.94;5012755;28;20570;-53
2022/06/29 06:19:13;;;;;;;5.93;3.70;;;;;;;22.40;69.29;98509.47;5014196;28;20205;-53
2022/06/29 06:21:39;;;;;;;4.47;3.60;;;;;;;22.69;67.18;98506.94;5014051;28;20216;-54
2022/06/29 06:24:08;;;;;;;3.23;2.93;;;;;;;22.87;67.53;98507.03;5012805;28;20613;-54
2022/06/29 06:26:36;;;;;;;4.10;3.53;;;;;;;22.51;67.31;98507.06;5012545;28;20214;-55
2022/06/29 06:29:03;;;;;;;5.20;4.00;;;;;;;22.58;68.02;98498.97;5013960;28;20229;-55
2022/06/29 06:31:31;;;;;;;4.90;3.10;;;;;;;23.14;67.54;98505.47;5012463;28;20573;-55
2022/06/29 06:34:01;;;;;;;4.90;3.47;;;;;;;23.63;64.48;98498.91;5014014;28;20188;-51
2022/06/29 06:36:28;;;;;;;4.57;3.20;;;;;;;23.83;63.29;98503.81;5013936;28;20195;-51
2022/06/29 06:38:55;;;;;;;4.50;3.80;;;;;;;23.53;63.79;98510.22;5014083;28;20183;-51
2022/06/29 06:41:22;;;;;;;4.07;3.63;;;;;;;23.31;65.23;98512.75;5013612;28;20679;-51
2022/06/29 06:43:54;;;;;;;5.90;3.50;;;;;;;23.18;65.20;98508.47;5013822;28;20253;-51
2022/06/29 06:46:22;;;;;;;4.10;3.60;;;;;;;23.26;64.99;98509.97;5012291;28;20195;-53
2022/06/29 06:48:50;;;;;;;8.67;3.70;;;;;;;23.19;65.68;98515.41;5012539;28;20283;-51
2022/06/29 06:51:18;;;;;;;5.77;3.67;;;;;;;23.24;65.76;98515.53;5013465;28;20204;-51
2022/06/29 06:53:46;;;;;;;4.63;3.73;;;;;;;23.11;65.62;98521.09;5013407;28;20243;-52
2022/06/29 06:56:14;;;;;;;4.30;3.80;;;;;;;22.89;65.73;98518.25;5013505;28;20200;-51
2022/06/29 06:58:43;;;;;;;7.83;3.50;;;;;;;22.97;65.61;98520.56;5013576;28;20679;-54
2022/06/29 07:01:11;;;;;;;5.80;3.30;;;;;;;22.93;66.43;98519.41;5013329;28;20219;-54
2022/06/29 07:03:39;;;;;;;6.80;3.30;;;;;;;23.13;66.69;98519.00;5013511;28;20187;-51
2022/06/29 07:06:08;;;;;;;3.40;3.10;;;;;;;23.17;64.80;98519.34;5011784;28;20202;-52
2022/06/29 07:08:54;;;;;;;4.67;3.83;;;;;;;22.72;66.54;98515.50;5013627;28;20206;-53
2022/06/29 07:11:39;;;;;;;6.00;3.60;;;;;;;22.91;66.22;98516.97;5013315;28;20335;-51
2022/06/29 07:14:07;;;;;;;6.83;3.90;;;;;;;22.65;66.47;98510.28;5011933;28;20203;-53
2022/06/29 07:16:35;;;;;;;4.97;3.70;;;;;;;22.54;66.84;98509.28;5013017;28;20192;-53
2022/06/29 07:19:02;;;;;;;4.30;3.90;;;;;;;22.49;67.54;98511.81;5013243;28;20194;-54
2022/06/29 07:21:30;;;;;;;4.03;3.70;;;;;;;21.99;69.85;98510.34;5012998;28;20231;-53
2022/06/29 07:23:58;;;;;;;7.10;4.40;;;;;;;21.99;70.12;98510.34;5013122;28;20607;-52
2022/06/29 07:26:26;;;;;;;5.50;4.37;;;;;;;21.75;70.20;98513.75;5012792;28;20190;-54
2022/06/29 07:28:53;;;;;;;4.50;4.10;;;;;;;21.80;70.69;98505.13;5013046;28;20273;-52
2022/06/29 07:31:22;;;;;;;7.73;4.90;;;;;;;21.65;70.53;98514.31;5012639;28;20213;-53
2022/06/29 07:33:49;;;;;;;5.00;3.93;;;;;;;22.18;69.47;98511.91;5012800;28;20308;-52
2022/06/29 07:36:17;;;;;;;4.80;3.90;;;;;;;22.41;68.16;98518.25;5011286;28;20198;-55
2022/06/29 07:39:02;;;;;;;7.83;4.40;;;;;;;22.79;66.89;98514.34;5013186;28;20201;-51
2022/06/29 07:41:29;;;;;;;4.60;4.13;;;;;;;22.95;66.13;98512.00;5012399;28;20588;-52
2022/06/29 07:43:57;;;;;;;5.57;4.20;;;;;;;22.87;66.34;98515.03;5013011;28;20182;-51
2022/06/29 07:46:25;;;;;;;7.10;3.90;;;;;;;22.96;66.98;98513.63;5012743;28;20201;-53
2022/06/29 07:48:53;;;;;;;3.90;3.50;;;;;;;23.14;67.25;98513.47;5011340;28;20203;-53
2022/06/29 07:51:20;;;;;;;7.43;3.63;;;;;;;23.23;65.98;98510.47;5012451;28;20250;-52
2022/06/29 07:53:47;;;;;;;4.87;3.30;;;;;;;23.32;66.57;98514.34;5012414;28;20218;-51
2022/06/29 07:56:15;;;;;;;4.47;4.03;;;;;;;23.52;65.40;98508.59;5012535;28;20181;-54
2022/06/29 07:58:43;;;;;;;8.33;3.77;;;;;;;23.53;65.51;98504.06;5012642;28;20192;-52
2022/06/29 08:01:09;;;;;;;6.17;4.07;;;;;;;23.34;66.48;98509.59;5012423;28;20211;-54
2022/06/29 08:03:38;;;;;;;5.93;3.83;;;;;;;23.46;65.60;98506.06;5012664;28;20295;-52
2022/06/29 08:06:06;;;;;;;4.50;3.93;;;;;;;23.87;64.69;98514.78;5011161;28;20202;-53
2022/06/29 08:08:34;;;;;;;4.40;4.00;;;;;;;24.23;64.83;98510.06;5011220;28;20198;-52
2022/06/29 08:11:02;;;;;;;5.87;4.23;;;;;;;24.37;62.64;98513.19;5010993;28;20271;-53
2022/06/29 08:13:30;;;;;;;5.90;3.27;;;;;;;24.38;62.76;98514.03;5011026;28;20222;-55
2022/06/29 08:15:57;;;;;;;4.20;3.40;;;;;;;24.02;62.07;98512.41;5012356;28;20188;-54
2022/06/29 08:18:24;;;;;;;4.03;3.60;;;;;;;24.46;61.60;98518.91;5012514;28;20187;-54
2022/06/29 08:20:52;;;;;;;6.20;3.63;;;;;;;23.87;63.70;98520.91;5012057;28;20291;-54
2022/06/29 08:23:20;;;;;;;6.83;4.07;;;;;;;23.63;64.05;98514.13;5011902;28;20259;-53
2022/06/29 08:25:48;;;;;;;4.37;3.43;;;;;;;23.20;67.24;98513.56;5011908;28;20210;-54
2022/06/29 08:28:15;;;;;;;4.67;3.63;;;;;;;23.87;64.85;98520.91;5011572;28;20203;-54
2022/06/29 08:30:43;;;;;;;5.77;3.93;;;;;;;23.94;64.21;98525.28;5011973;28;20544;-55
2022/06/29 08:33:09;;;;;;;4.97;4.03;;;;;;;24.03;63.23;98529.19;5011998;28;20210;-51
2022/06/29 08:35:37;;;;;;;5.60;3.63;;;;;;;23.69;63.00;98531.81;5010698;28;20204;-52
2022/06/29 08:38:07;;;;;;;5.73;3.77;;;;;;;23.71;62.03;98529.72;5013310;28;20205;-55
2022/06/29 08:40:44;;;;;;;7.33;3.80;;;;;;;23.64;61.76;98532.50;5014367;28;20232;-56
2022/06/29 08:43:12;;;;;;;4.60;3.50;;;;;;;24.01;60.26;98537.47;5015669;28;20699;-52
2022/06/29 08:45:42;;;;;;;3.97;3.40;;;;;;;24.09;58.85;98530.91;5015959;28;20229;-54
2022/06/29 08:48:10;;;;;;;6.93;3.60;;;;;;;23.84;60.41;98528.59;5015871;28;20195;-54
2022/06/29 08:50:38;;;;;;;3.70;3.27;;;;;;;23.95;61.65;98529.56;5014388;28;20223;-59
2022/06/29 08:53:09;;;;;;;8.10;4.03;;;;;;;24.03;60.44;98535.34;5015783;28;20552;-54
2022/06/29 08:55:41;;;;;;;8.73;5.00;;;;;;;24.10;61.20;98539.72;5014133;28;20239;-52
2022/06/29 08:58:12;;;;;;;7.60;4.00;;;;;;;24.17;60.95;98540.38;5014705;28;20186;-55
2022/06/29 09:00:40;;;;;;;6.40;3.67;;;;;;;24.27;59.28;98540.53;5015159;28;20238;-56
2022/06/29 09:03:07;;;;;;;4.27;3.40;;;;;;;24.21;59.73;98546.03;5015415;28;20195;-57
2022/06/29 09:05:35;;;;;;;5.97;4.17;;;;;;;24.27;59.85;98545.06;5015204;28;20201;-56
2022/06/29 09:08:02;;;;;;;5.23;3.57;;;;;;;24.51;60.04;98548.34;5015310;28;20267;-55
2022/06/29 09:10:32;;;;;;;5.27;3.60;;;;;;;24.53;58.55;98550.78;5013669;28;20699;-55
2022/06/29 09:13:00;;;;;;;4.93;3.30;;;;;;;24.57;59.02;98552.69;5013879;28;20374;-55
2022/06/29 09:15:32;;;;;;;5.07;3.40;;;;;;;24.69;57.40;98551.81;5014956;28;20199;-55
2022/06/29 09:18:01;;;;;;;3.50;3.20;;;;;;;24.71;57.36;98547.84;5015058;28;20614;-56
2022/06/29 09:20:38;;;;;;;4.43;3.53;;;;;;;24.65;58.55;98545.34;5014832;28;20281;-55
2022/06/29 09:23:08;;;;;;;6.00;3.37;;;;;;;24.83;57.72;98550.44;5015105;28;20186;-55
2022/06/29 09:25:39;;;;;;;4.83;3.27;;;;;;;24.84;56.71;98552.03;5014850;28;20186;-52
2022/06/29 09:28:19;;;;;;;6.10;3.37;;;;;;;25.11;55.27;98551.31;5013429;28;20201;-56
2022/06/29 09:30:48;;;;;;;3.53;3.13;;;;;;;25.26;54.84;98550.69;5014933;28;20220;-55
2022/06/29 09:33:15;;;;;;;6.10;3.23;;;;;;;25.25;54.57;98545.63;5013467;28;20233;-55
2022/06/29 09:35:42;;;;;;;6.60;3.30;;;;;;;25.12;55.49;98547.59;5014698;28;20541;-53
2022/06/29 09:38:23;;;;;;;5.43;2.80;;;;;;;25.28;54.33;98545.13;5013430;28;20288;-56
2022/06/29 09:41:01;;;;;;;4.70;3.13;;;;;;;25.62;54.02;98539.63;5014604;28;20205;-53
2022/06/29 09:43:29;;;;;;;4.83;3.10;;;;;;;25.75;53.61;98543.78;5014657;28;20191;-54
2022/06/29 09:45:56;;;;;;;5.67;3.13;;;;;;;25.83;53.78;98534.47;5014558;28;20186;-53
2022/06/29 09:48:26;;;;;;;4.13;2.40;;;;;;;26.01;52.55;98547.47;5014481;28;20186;-55
2022/06/29 09:50:55;;;;;;;4.87;2.57;;;;;;;26.21;50.54;98548.75;5014208;28;20210;-53
2022/06/29 09:53:26;;;;;;;5.40;2.40;;;;;;;26.54;50.98;98546.81;5014421;28;20211;-54
2022/06/29 09:55:57;;;;;;;5.50;2.50;;;;;;;26.40;49.96;98551.81;5014251;28;20191;-55
2022/06/29 09:58:36;;;;;;;2.50;2.00;;;;;;;26.74;49.76;98539.97;5014396;28;20186;-53
2022/06/29 10:03:55;;;;;;;3.53;2.13;;;;;;;26.68;46.28;98539.94;5014251;28;20189;-55
2022/06/29 10:06:22;;;;;;;2.87;2.03;;;;;;;26.37;47.46;98545.13;5014044;28;20248;-54
2022/06/29 10:08:49;;;;;;;3.20;2.28;;;;;;;26.30;48.68;98533.81;5014063;28;20666;-55
2022/06/29 10:14:28;;;;;;;4.88;2.03;;;;;;;26.50;46.32;98527.78;5014057;28;20347;-54
2022/06/29 10:17:04;;;;;;;2.93;1.90;;;;;;;26.10;48.58;98526.41;5013995;28;20196;-55
2022/06/29 10:19:43;;;;;;;2.97;2.03;;;;;;;26.15;46.33;98534.50;5014007;28;20193;-54
2022/06/29 10:22:10;;;;;;;2.53;2.20;;;;;;;25.49;49.40;98533.59;5013782;28;20214;-53
2022/06/29 10:24:38;;;;;;;3.03;2.27;;;;;;;25.28;49.34;98532.56;5013951;28;20181;-54
2022/06/29 10:27:08;;;;;;;4.27;1.90;;;;;;;25.47;47.83;98538.41;5013588;28;20193;-53
2022/06/29 10:29:37;;;;;;;3.60;2.03;;;;;;;24.99;48.14;98538.09;5012578;28;20576;-53
2022/06/29 10:32:16;;;;;;;3.60;2.10;;;;;;;25.01;49.05;98541.31;5013694;28;20707;-54
2022/06/29 10:35:07;;;;;;;3.90;2.43;;;;;;;25.07;47.77;98528.84;5013954;28;20225;-52
2022/06/29 10:37:48;;;;;;;4.38;2.10;;;;;;;25.30;48.72;98524.31;5012882;28;20489;-54
2022/06/29 10:40:21;;;;;;;3.77;2.10;;;;;;;25.64;49.03;98521.47;5013361;28;20240;-54
2022/06/29 10:45:41;;;;;;;2.00;1.87;;;;;;;26.01;47.36;98528.75;5013495;28;20685;-52
2022/06/29 10:48:16;;;;;;;3.60;2.27;;;;;;;26.04;48.02;98527.41;5013692;28;20192;-52
2022/06/29 10:50:46;;;;;;;7.30;2.57;;;;;;;26.20;48.15;98517.69;5013434;28;20225;-53
2022/06/29 10:53:15;;;;;;;5.60;2.43;;;;;;;26.57;46.92;98524.09;5013144;28;20242;-54
2022/06/29 10:55:43;;;;;;;5.53;2.73;;;;;;;26.42;48.02;98519.47;5013394;28;20275;-54
2022/06/29 10:58:11;;;;;;;6.78;2.22;;;;;;;26.66;46.37;98525.22;5013358;28;20187;-52
2022/06/29 11:00:40;;;;;;;2.42;1.98;;;;;;;27.09;44.14;98514.47;5012628;28;20210;-54
2022/06/29 11:03:13;;;;;;;3.80;1.85;;;;;;;27.07;44.11;98517.38;5013324;28;20183;-52
2022/06/29 11:13:53;;;;;;;5.83;2.50;;;;;;;27.48;45.80;98500.66;5012930;28;20207;-54
2022/06/29 11:16:28;;;;;;;3.63;2.13;;;;;;;27.54;46.97;98491.56;5012759;28;20189;-53
2022/06/29 11:18:56;;;;;;;6.45;2.88;;;;;;;26.90;46.86;98498.84;5013320;28;20194;-52
2022/06/29 11:21:23;;;;;;;2.83;2.53;;;;;;;27.41;47.66;98505.44;5013013;28;20210;-53
2022/06/29 11:23:56;;;;;;;4.25;2.88;;;;;;;27.32;44.95;98494.41;5012898;28;20185;-54
2022/06/29 11:26:27;;;;;;;7.90;2.75;;;;;;;27.55;45.38;98501.22;5012783;28;20186;-52
2022/06/29 11:28:57;;;;;;;3.60;2.53;;;;;;;27.68;44.85;98489.16;5012758;28;20190;-51
2022/06/29 11:31:26;;;;;;;3.45;2.03;;;;;;;27.45;43.95;98495.81;5012620;28;20749;-54
2022/06/29 11:33:55;;;;;;;2.33;2.00;;;;;;;27.55;43.50;98498.53;5027746;22;20225;-49
2022/06/29 11:36:26;;;;;;;3.72;2.63;;;;;;;27.20;43.73;98489.31;5012597;28;20188;-49
2022/06/29 11:38:55;;;;;;;4.53;2.57;;;;;;;26.93;46.42;98487.59;5011530;28;20285;-49
2022/06/29 11:41:25;;;;;;;2.73;2.20;;;;;;;27.19;43.58;98487.69;5012393;28;20308;-49
2022/06/29 11:44:03;;;;;;;4.97;1.90;;;;;;;26.98;45.24;98481.47;5012753;28;20513;-49
2022/06/29 11:46:35;;;;;;;6.23;1.93;;;;;;;26.93;43.54;98482.25;5012541;28;20246;-49
2022/06/29 11:51:56;;;;;;;4.97;2.50;;;;;;;26.52;46.43;98490.88;5012191;28;20230;-49
2022/06/29 11:54:38;;;;;;;6.40;2.60;;;;;;;26.73;45.65;98487.47;5012395;28;20222;-49
2022/06/29 11:57:09;;;;;;;4.63;2.07;;;;;;;26.60;47.14;98476.19;5012233;28;20273;-49
2022/06/29 11:59:36;;;;;;;2.77;1.97;;;;;;;26.96;44.45;98478.25;5012225;28;20233;-49
2022/06/29 12:02:05;;;;;;;2.33;1.90;;;;;;;26.61;46.03;98477.00;5012102;28;20187;-49
2022/06/29 12:04:35;;;;;;;2.60;2.00;;;;;;;27.08;45.26;98486.06;5010933;28;20202;-49